IBE680 LIPZ-LEMD
Flight info
| Callsign | IBE680 |
|---|---|
| Flight time | N/A |
| Altitude | 33000 |
| Route | AKADO M196 KOPER DCT IBTOK DCT LAGEN DCT GEKBA DCT VAMTU DCT KOLON DCT GANGU DCT PADKO DCT DIVKO DCT NILDU DCT NENDA DCT BCN DCT ANTON DCT XIKEN DCT OSLAP N975 ADUXO |
| Aircraft | A20N/M-SDE2E3FGHIRWXY/LB1 |
Departure
| Time | 2026-05-08 07:41 |
|---|---|
| Airport | Venice Marco Polo Airport (LIPZ) |
Arrival
| Time | N/A |
|---|---|
| Airport | Adolfo Suárez Madrid–Barajas Airport (LEMD) |
| Time | Latitude | Longitude | Altitude | Speed | Heading |
|---|---|---|---|---|---|
| 2026-05-08 06:55 | 45.50552 | 12.34219 | 15 ft | 0 kts | 267° |
| 2026-05-08 07:32 | 45.50552 | 12.34224 | 15 ft | 3 kts | 267° |
| 2026-05-08 07:32 | 45.50553 | 12.34262 | 15 ft | 4 kts | 267° |
| 2026-05-08 07:33 | 45.50554 | 12.34293 | 15 ft | 4 kts | 257° |
| 2026-05-08 07:33 | 45.50565 | 12.34326 | 18 ft | 4 kts | 217° |
| 2026-05-08 07:33 | 45.50583 | 12.34337 | 17 ft | 2 kts | 177° |
| 2026-05-08 07:33 | 45.50564 | 12.34338 | 17 ft | 4 kts | 177° |
| 2026-05-08 07:34 | 45.50544 | 12.34339 | 16 ft | 0 kts | 177° |
| 2026-05-08 07:37 | 45.50540 | 12.34339 | 16 ft | 2 kts | 178° |
| 2026-05-08 07:37 | 45.50504 | 12.34341 | 15 ft | 8 kts | 177° |
| 2026-05-08 07:37 | 45.50432 | 12.34346 | 15 ft | 12 kts | 177° |
| 2026-05-08 07:37 | 45.50340 | 12.34352 | 16 ft | 15 kts | 178° |
| 2026-05-08 07:38 | 45.50230 | 12.34359 | 16 ft | 17 kts | 177° |
| 2026-05-08 07:38 | 45.50112 | 12.34319 | 17 ft | 19 kts | 217° |
| 2026-05-08 07:38 | 45.50006 | 12.34185 | 14 ft | 22 kts | 222° |
| 2026-05-08 07:38 | 45.49886 | 12.34031 | 14 ft | 24 kts | 222° |
| 2026-05-08 07:39 | 45.49764 | 12.33874 | 14 ft | 20 kts | 222° |
| 2026-05-08 07:39 | 45.49661 | 12.33741 | 16 ft | 21 kts | 220° |
| 2026-05-08 07:39 | 45.49570 | 12.33626 | 16 ft | 9 kts | 223° |
| 2026-05-08 07:39 | 45.49511 | 12.33601 | 16 ft | 11 kts | 158° |
| 2026-05-08 07:40 | 45.49454 | 12.33683 | 15 ft | 11 kts | 129° |
| 2026-05-08 07:40 | 45.49416 | 12.33759 | 16 ft | 8 kts | 98° |
| 2026-05-08 07:40 | 45.49456 | 12.33829 | 14 ft | 15 kts | 43° |
| 2026-05-08 07:40 | 45.49689 | 12.34130 | 12 ft | 79 kts | 42° |
| 2026-05-08 07:41 | 45.50243 | 12.34842 | 14 ft | 133 kts | 43° |
| 2026-05-08 07:41 | 45.51039 | 12.35853 | 113 ft | 164 kts | 41° |
| 2026-05-08 07:41 | 45.51860 | 12.36942 | 692 ft | 165 kts | 47° |
| 2026-05-08 07:41 | 45.52651 | 12.38122 | 1341 ft | 165 kts | 52° |
| 2026-05-08 07:42 | 45.53341 | 12.39419 | 1935 ft | 168 kts | 68° |
| 2026-05-08 07:42 | 45.53561 | 12.41119 | 2283 ft | 186 kts | 98° |
| 2026-05-08 07:42 | 45.53325 | 12.43029 | 2669 ft | 204 kts | 98° |
| 2026-05-08 07:42 | 45.53125 | 12.45071 | 3430 ft | 206 kts | 96° |
| 2026-05-08 07:43 | 45.52962 | 12.47122 | 4215 ft | 210 kts | 95° |
| 2026-05-08 07:43 | 45.52792 | 12.49206 | 5037 ft | 212 kts | 96° |
| 2026-05-08 07:43 | 45.52585 | 12.51280 | 5802 ft | 216 kts | 104° |
| 2026-05-08 07:43 | 45.51842 | 12.53141 | 6565 ft | 219 kts | 137° |
| 2026-05-08 07:44 | 45.50506 | 12.54152 | 7302 ft | 221 kts | 170° |
| 2026-05-08 07:44 | 45.48962 | 12.54087 | 8024 ft | 227 kts | 189° |
| 2026-05-08 07:44 | 45.47342 | 12.53620 | 8452 ft | 248 kts | 192° |
| 2026-05-08 07:44 | 45.45599 | 12.53077 | 8976 ft | 261 kts | 192° |
| 2026-05-08 07:45 | 45.43829 | 12.52565 | 9754 ft | 264 kts | 192° |
| 2026-05-08 07:45 | 45.41954 | 12.52049 | 10145 ft | 285 kts | 191° |
| 2026-05-08 07:45 | 45.39917 | 12.51525 | 10489 ft | 308 kts | 190° |
| 2026-05-08 07:45 | 45.37729 | 12.50988 | 10775 ft | 330 kts | 191° |
| 2026-05-08 07:46 | 45.35492 | 12.50072 | 11315 ft | 340 kts | 208° |
| 2026-05-08 07:46 | 45.33601 | 12.48041 | 12093 ft | 344 kts | 229° |
| 2026-05-08 07:46 | 45.32370 | 12.45134 | 12854 ft | 348 kts | 251° |
| 2026-05-08 07:46 | 45.31664 | 12.41829 | 13634 ft | 352 kts | 255° |
| 2026-05-08 07:47 | 45.30997 | 12.38472 | 14363 ft | 355 kts | 255° |
| 2026-05-08 07:47 | 45.30325 | 12.35122 | 15063 ft | 357 kts | 253° |
| 2026-05-08 07:47 | 45.29620 | 12.31732 | 15757 ft | 360 kts | 253° |
| 2026-05-08 07:47 | 45.28901 | 12.28313 | 16469 ft | 362 kts | 252° |
| 2026-05-08 07:48 | 45.28178 | 12.24870 | 17105 ft | 366 kts | 252° |
| 2026-05-08 07:48 | 45.27450 | 12.21386 | 17776 ft | 369 kts | 252° |
| 2026-05-08 07:48 | 45.26717 | 12.17872 | 18426 ft | 372 kts | 253° |
| 2026-05-08 07:48 | 45.26230 | 12.15533 | 18801 ft | 374 kts | 253° |
| 2026-05-08 07:49 | 45.25491 | 12.11987 | 19423 ft | 375 kts | 253° |
| 2026-05-08 07:49 | 45.24747 | 12.08423 | 20011 ft | 378 kts | 253° |
| 2026-05-08 07:49 | 45.23997 | 12.04841 | 20597 ft | 380 kts | 253° |
| 2026-05-08 07:49 | 45.22992 | 12.00052 | 21344 ft | 384 kts | 253° |
| 2026-05-08 07:50 | 45.22476 | 11.97598 | 21744 ft | 385 kts | 253° |
| 2026-05-08 07:50 | 45.21707 | 11.93941 | 22330 ft | 388 kts | 253° |
| 2026-05-08 07:50 | 45.20931 | 11.90263 | 22906 ft | 391 kts | 253° |
| 2026-05-08 07:50 | 45.20149 | 11.86558 | 23485 ft | 393 kts | 253° |
| 2026-05-08 07:51 | 45.19361 | 11.82830 | 23990 ft | 396 kts | 253° |
| 2026-05-08 07:51 | 45.18569 | 11.79087 | 24496 ft | 397 kts | 253° |
| 2026-05-08 07:51 | 45.17785 | 11.75386 | 24999 ft | 398 kts | 253° |
| 2026-05-08 07:51 | 45.16985 | 11.71623 | 25459 ft | 400 kts | 253° |
| 2026-05-08 07:52 | 45.16170 | 11.67793 | 25930 ft | 401 kts | 252° |
| 2026-05-08 07:52 | 45.15369 | 11.64041 | 26356 ft | 403 kts | 252° |
| 2026-05-08 07:52 | 45.14518 | 11.60255 | 26788 ft | 405 kts | 251° |
| 2026-05-08 07:52 | 45.13604 | 11.56468 | 27223 ft | 406 kts | 250° |
| 2026-05-08 07:53 | 45.12675 | 11.52681 | 27594 ft | 408 kts | 250° |
| 2026-05-08 07:53 | 45.11745 | 11.48874 | 28005 ft | 410 kts | 250° |
| 2026-05-08 07:53 | 45.10819 | 11.45053 | 28412 ft | 411 kts | 250° |
| 2026-05-08 07:53 | 45.09894 | 11.41221 | 28797 ft | 413 kts | 250° |
| 2026-05-08 07:54 | 45.08963 | 11.37362 | 29159 ft | 415 kts | 250° |
| 2026-05-08 07:54 | 45.08027 | 11.33489 | 29522 ft | 416 kts | 249° |
| 2026-05-08 07:54 | 45.07090 | 11.29615 | 29880 ft | 418 kts | 249° |
| 2026-05-08 07:54 | 45.06146 | 11.25715 | 30204 ft | 420 kts | 249° |
| 2026-05-08 07:55 | 45.05195 | 11.21800 | 30543 ft | 421 kts | 249° |
| 2026-05-08 07:55 | 45.04241 | 11.17880 | 30892 ft | 421 kts | 249° |
| 2026-05-08 07:55 | 45.03285 | 11.13961 | 31238 ft | 422 kts | 249° |
| 2026-05-08 07:55 | 45.02342 | 11.10099 | 31686 ft | 419 kts | 249° |
| 2026-05-08 07:56 | 45.01391 | 11.06210 | 32160 ft | 417 kts | 248° |
| 2026-05-08 07:56 | 45.00448 | 11.02361 | 32639 ft | 414 kts | 248° |
| 2026-05-08 07:56 | 44.99508 | 10.98528 | 32983 ft | 411 kts | 248° |
| 2026-05-08 07:57 | 44.97642 | 10.90947 | 33054 ft | 408 kts | 248° |
| 2026-05-08 07:57 | 44.95766 | 10.83356 | 33058 ft | 409 kts | 248° |
| 2026-05-08 07:58 | 44.93887 | 10.75770 | 33062 ft | 409 kts | 248° |
| 2026-05-08 07:58 | 44.92006 | 10.68202 | 33068 ft | 409 kts | 248° |
| 2026-05-08 07:59 | 44.90157 | 10.60618 | 33077 ft | 409 kts | 249° |
| 2026-05-08 07:59 | 44.88418 | 10.52960 | 33082 ft | 410 kts | 249° |
| 2026-05-08 08:00 | 44.86681 | 10.45352 | 33087 ft | 410 kts | 249° |
| 2026-05-08 08:00 | 44.84932 | 10.37707 | 33082 ft | 410 kts | 250° |
| 2026-05-08 08:01 | 44.83215 | 10.30050 | 33087 ft | 409 kts | 249° |
| 2026-05-08 08:01 | 44.81445 | 10.22438 | 33083 ft | 408 kts | 249° |
| 2026-05-08 08:02 | 44.79635 | 10.14865 | 33082 ft | 408 kts | 248° |
| 2026-05-08 08:02 | 44.77829 | 10.07299 | 33076 ft | 407 kts | 248° |
| 2026-05-08 08:03 | 44.76051 | 9.99773 | 33062 ft | 407 kts | 248° |
| 2026-05-08 08:03 | 44.74280 | 9.92204 | 33046 ft | 407 kts | 249° |
| 2026-05-08 08:04 | 44.72492 | 9.84654 | 33037 ft | 407 kts | 248° |
| 2026-05-08 08:04 | 44.70668 | 9.77106 | 33041 ft | 408 kts | 248° |
| 2026-05-08 08:05 | 44.68852 | 9.69558 | 33041 ft | 408 kts | 248° |
| 2026-05-08 08:05 | 44.67044 | 9.62026 | 33034 ft | 408 kts | 248° |
| 2026-05-08 08:06 | 44.65218 | 9.54439 | 33031 ft | 408 kts | 247° |
| 2026-05-08 08:06 | 44.63372 | 9.46905 | 33030 ft | 409 kts | 246° |
| 2026-05-08 08:07 | 44.61525 | 9.39353 | 33030 ft | 409 kts | 246° |
| 2026-05-08 08:07 | 44.59690 | 9.31797 | 33021 ft | 410 kts | 247° |
| 2026-05-08 08:08 | 44.57859 | 9.24265 | 33029 ft | 410 kts | 247° |
| 2026-05-08 08:08 | 44.56008 | 9.16671 | 33018 ft | 412 kts | 247° |
| 2026-05-08 08:09 | 44.54147 | 9.09065 | 33012 ft | 412 kts | 247° |
| 2026-05-08 08:09 | 44.52280 | 9.01476 | 33004 ft | 413 kts | 247° |
| 2026-05-08 08:10 | 44.50401 | 8.93868 | 32997 ft | 413 kts | 247° |
| 2026-05-08 08:10 | 44.48518 | 8.86265 | 32996 ft | 414 kts | 247° |
| 2026-05-08 08:11 | 44.46626 | 8.78646 | 32994 ft | 414 kts | 247° |
| 2026-05-08 08:11 | 44.44731 | 8.71044 | 32995 ft | 414 kts | 247° |
| 2026-05-08 08:12 | 44.42829 | 8.63435 | 32997 ft | 413 kts | 247° |
| 2026-05-08 08:12 | 44.40924 | 8.55841 | 33002 ft | 414 kts | 247° |
| 2026-05-08 08:13 | 44.39116 | 8.48243 | 33011 ft | 416 kts | 252° |
| 2026-05-08 08:13 | 44.37791 | 8.40302 | 33017 ft | 417 kts | 255° |
| 2026-05-08 08:14 | 44.36529 | 8.32453 | 33023 ft | 417 kts | 254° |
| 2026-05-08 08:14 | 44.35204 | 8.24559 | 33020 ft | 417 kts | 253° |
| 2026-05-08 08:15 | 44.33848 | 8.16676 | 33016 ft | 417 kts | 253° |
| 2026-05-08 08:15 | 44.32470 | 8.08813 | 33014 ft | 417 kts | 252° |
| 2026-05-08 08:16 | 44.31087 | 8.00940 | 33013 ft | 418 kts | 253° |
| 2026-05-08 08:16 | 44.29718 | 7.93058 | 33026 ft | 418 kts | 252° |
| 2026-05-08 08:17 | 44.28313 | 7.85160 | 33026 ft | 419 kts | 252° |
| 2026-05-08 08:17 | 44.26062 | 7.77829 | 33049 ft | 412 kts | 234° |
| 2026-05-08 08:18 | 44.22222 | 7.71975 | 33038 ft | 410 kts | 219° |
| 2026-05-08 08:18 | 44.17928 | 7.66748 | 33031 ft | 411 kts | 220° |
| 2026-05-08 08:19 | 44.13733 | 7.61323 | 33033 ft | 412 kts | 226° |
| 2026-05-08 08:19 | 44.09961 | 7.55273 | 33034 ft | 414 kts | 227° |
| 2026-05-08 08:20 | 44.06203 | 7.49245 | 33031 ft | 415 kts | 227° |
| 2026-05-08 08:20 | 44.02386 | 7.43145 | 33032 ft | 416 kts | 228° |
| 2026-05-08 08:21 | 43.98600 | 7.37110 | 33027 ft | 417 kts | 228° |
| 2026-05-08 08:21 | 43.94783 | 7.31039 | 33020 ft | 418 kts | 228° |
| 2026-05-08 08:22 | 43.90953 | 7.24957 | 33014 ft | 417 kts | 228° |
| 2026-05-08 08:22 | 43.87123 | 7.18892 | 33020 ft | 418 kts | 228° |
| 2026-05-08 08:23 | 43.83294 | 7.12840 | 33019 ft | 418 kts | 229° |
| 2026-05-08 08:23 | 43.79454 | 7.06786 | 33022 ft | 418 kts | 229° |
| 2026-05-08 08:24 | 43.75613 | 7.00742 | 33018 ft | 419 kts | 229° |
| 2026-05-08 08:24 | 43.72183 | 6.94276 | 33020 ft | 418 kts | 240° |
| 2026-05-08 08:25 | 43.69736 | 6.86964 | 33025 ft | 419 kts | 249° |
| 2026-05-08 08:25 | 43.67593 | 6.79464 | 33036 ft | 419 kts | 249° |
| 2026-05-08 08:26 | 43.65404 | 6.72001 | 33037 ft | 419 kts | 249° |
| 2026-05-08 08:26 | 43.63216 | 6.64608 | 33043 ft | 419 kts | 248° |
| 2026-05-08 08:27 | 43.60990 | 6.57193 | 33023 ft | 416 kts | 249° |
| 2026-05-08 08:27 | 43.58779 | 6.49822 | 33023 ft | 416 kts | 248° |
| 2026-05-08 08:28 | 43.56561 | 6.42448 | 33025 ft | 415 kts | 248° |
| 2026-05-08 08:28 | 43.54332 | 6.35104 | 33018 ft | 415 kts | 249° |
| 2026-05-08 08:29 | 43.52136 | 6.27769 | 33021 ft | 413 kts | 249° |
| 2026-05-08 08:29 | 43.49937 | 6.20463 | 33022 ft | 412 kts | 249° |
| 2026-05-08 08:30 | 43.47734 | 6.13179 | 33019 ft | 411 kts | 248° |
| 2026-05-08 08:30 | 43.44417 | 6.02364 | 33019 ft | 409 kts | 249° |
| 2026-05-08 08:31 | 43.42221 | 5.95149 | 33017 ft | 408 kts | 249° |
| 2026-05-08 08:31 | 43.40022 | 5.87962 | 33023 ft | 407 kts | 249° |
| 2026-05-08 08:32 | 43.37821 | 5.80780 | 33019 ft | 407 kts | 249° |
| 2026-05-08 08:32 | 43.35628 | 5.73631 | 33021 ft | 406 kts | 249° |
| 2026-05-08 08:33 | 43.33435 | 5.66496 | 33010 ft | 405 kts | 249° |
| 2026-05-08 08:33 | 43.31240 | 5.59378 | 33018 ft | 404 kts | 250° |
| 2026-05-08 08:34 | 43.29046 | 5.52282 | 33019 ft | 403 kts | 250° |
| 2026-05-08 08:34 | 43.26866 | 5.45253 | 33026 ft | 402 kts | 250° |
| 2026-05-08 08:35 | 43.24673 | 5.38200 | 33027 ft | 401 kts | 250° |
| 2026-05-08 08:35 | 43.22482 | 5.31174 | 33028 ft | 400 kts | 250° |
| 2026-05-08 08:36 | 43.20660 | 5.25349 | 33027 ft | 399 kts | 250° |
| 2026-05-08 08:36 | 43.18474 | 5.18375 | 33029 ft | 397 kts | 250° |
| 2026-05-08 08:37 | 43.16289 | 5.11422 | 33024 ft | 396 kts | 250° |
| 2026-05-08 08:37 | 43.14110 | 5.04508 | 33021 ft | 394 kts | 250° |
| 2026-05-08 08:38 | 43.11935 | 4.97623 | 33021 ft | 394 kts | 250° |
| 2026-05-08 08:38 | 43.09761 | 4.90757 | 33015 ft | 393 kts | 251° |
| 2026-05-08 08:39 | 43.07585 | 4.83914 | 33015 ft | 392 kts | 250° |
| 2026-05-08 08:39 | 43.04767 | 4.77468 | 33012 ft | 400 kts | 238° |
| 2026-05-08 08:40 | 43.00893 | 4.71969 | 33005 ft | 409 kts | 228° |
| 2026-05-08 08:40 | 42.96626 | 4.66842 | 33014 ft | 408 kts | 229° |
| 2026-05-08 08:41 | 42.92370 | 4.61701 | 33012 ft | 409 kts | 229° |
| 2026-05-08 08:41 | 42.88108 | 4.56564 | 33024 ft | 409 kts | 229° |
| 2026-05-08 08:42 | 42.83831 | 4.51416 | 33021 ft | 410 kts | 229° |
| 2026-05-08 08:42 | 42.79547 | 4.46273 | 33023 ft | 411 kts | 228° |
| 2026-05-08 08:43 | 42.75254 | 4.41131 | 33025 ft | 411 kts | 228° |
| 2026-05-08 08:43 | 42.70950 | 4.35984 | 33030 ft | 412 kts | 228° |
| 2026-05-08 08:44 | 42.66669 | 4.30876 | 33038 ft | 413 kts | 228° |
| 2026-05-08 08:44 | 42.62345 | 4.25728 | 33042 ft | 413 kts | 227° |
| 2026-05-08 08:45 | 42.58011 | 4.20576 | 33036 ft | 414 kts | 227° |
| 2026-05-08 08:45 | 42.53674 | 4.15430 | 33025 ft | 414 kts | 227° |
| 2026-05-08 08:46 | 42.49326 | 4.10283 | 33037 ft | 415 kts | 227° |
| 2026-05-08 08:46 | 42.44974 | 4.05149 | 33038 ft | 415 kts | 227° |
| 2026-05-08 08:47 | 42.40619 | 4.00018 | 33042 ft | 415 kts | 227° |
| 2026-05-08 08:47 | 42.36261 | 3.94887 | 33038 ft | 415 kts | 226° |
| 2026-05-08 08:48 | 42.31921 | 3.89795 | 33032 ft | 414 kts | 226° |
| 2026-05-08 08:48 | 42.27592 | 3.84664 | 33032 ft | 412 kts | 229° |
| 2026-05-08 08:49 | 42.23880 | 3.78849 | 33026 ft | 405 kts | 239° |
| 2026-05-08 08:49 | 42.20651 | 3.72660 | 33020 ft | 405 kts | 238° |
| 2026-05-08 08:50 | 42.17389 | 3.66469 | 33017 ft | 404 kts | 238° |
| 2026-05-08 08:50 | 42.14115 | 3.60289 | 33010 ft | 404 kts | 238° |
| 2026-05-08 08:51 | 42.10841 | 3.54120 | 33008 ft | 404 kts | 238° |
| 2026-05-08 08:51 | 42.07566 | 3.47962 | 33004 ft | 404 kts | 237° |
| 2026-05-08 08:52 | 42.04313 | 3.41836 | 33003 ft | 404 kts | 237° |
| 2026-05-08 08:52 | 42.01036 | 3.35679 | 33001 ft | 404 kts | 237° |
| 2026-05-08 08:53 | 41.97758 | 3.29532 | 33002 ft | 404 kts | 237° |
| 2026-05-08 08:53 | 41.94489 | 3.23417 | 33002 ft | 404 kts | 237° |
| 2026-05-08 08:54 | 41.91197 | 3.17276 | 33006 ft | 404 kts | 237° |
| 2026-05-08 08:54 | 41.87925 | 3.11180 | 33009 ft | 405 kts | 237° |
| 2026-05-08 08:55 | 41.84621 | 3.05034 | 33015 ft | 405 kts | 237° |
| 2026-05-08 08:55 | 41.81316 | 2.98900 | 33017 ft | 405 kts | 236° |
| 2026-05-08 08:56 | 41.78028 | 2.92817 | 33017 ft | 405 kts | 236° |
| 2026-05-08 08:56 | 41.74709 | 2.86688 | 33016 ft | 405 kts | 236° |
| 2026-05-08 08:57 | 41.71411 | 2.80610 | 33012 ft | 405 kts | 236° |
| 2026-05-08 08:57 | 41.68086 | 2.74492 | 33012 ft | 405 kts | 236° |
| 2026-05-08 08:58 | 41.64655 | 2.68533 | 33003 ft | 406 kts | 234° |
| 2026-05-08 08:58 | 41.61165 | 2.62604 | 33006 ft | 405 kts | 234° |
| 2026-05-08 08:59 | 41.57684 | 2.56653 | 32996 ft | 406 kts | 234° |
| 2026-05-08 08:59 | 41.54202 | 2.50692 | 32997 ft | 406 kts | 234° |
| 2026-05-08 09:00 | 41.50742 | 2.44778 | 32998 ft | 406 kts | 234° |
| 2026-05-08 09:00 | 41.47251 | 2.38826 | 33001 ft | 406 kts | 233° |
| 2026-05-08 09:01 | 41.43771 | 2.32905 | 33000 ft | 407 kts | 233° |
| 2026-05-08 09:01 | 41.40290 | 2.26991 | 33016 ft | 407 kts | 233° |
| 2026-05-08 09:02 | 41.36771 | 2.21027 | 33021 ft | 408 kts | 233° |
| 2026-05-08 09:02 | 41.33298 | 2.15086 | 33016 ft | 407 kts | 237° |
| 2026-05-08 09:03 | 41.30749 | 2.08405 | 33020 ft | 406 kts | 251° |
| 2026-05-08 09:03 | 41.29595 | 2.01074 | 33017 ft | 407 kts | 260° |
| 2026-05-08 09:04 | 41.28750 | 1.93597 | 33013 ft | 407 kts | 259° |
| 2026-05-08 09:04 | 41.27890 | 1.86174 | 33020 ft | 408 kts | 259° |
| 2026-05-08 09:05 | 41.27017 | 1.78700 | 33027 ft | 408 kts | 259° |
| 2026-05-08 09:05 | 41.26158 | 1.71265 | 33019 ft | 409 kts | 260° |
| 2026-05-08 09:06 | 41.25301 | 1.63795 | 33018 ft | 409 kts | 259° |
| 2026-05-08 09:06 | 41.24420 | 1.56319 | 33021 ft | 409 kts | 259° |
| 2026-05-08 09:07 | 41.23532 | 1.48864 | 33024 ft | 408 kts | 259° |
| 2026-05-08 09:07 | 41.22668 | 1.41439 | 33020 ft | 408 kts | 260° |
| 2026-05-08 09:08 | 41.21793 | 1.33970 | 33015 ft | 408 kts | 259° |
| 2026-05-08 09:08 | 41.20890 | 1.26522 | 33013 ft | 408 kts | 259° |
| 2026-05-08 09:09 | 41.19981 | 1.19117 | 33011 ft | 408 kts | 258° |
| 2026-05-08 09:09 | 41.19058 | 1.11664 | 33009 ft | 409 kts | 258° |
| 2026-05-08 09:10 | 41.18115 | 1.04189 | 33009 ft | 410 kts | 257° |
| 2026-05-08 09:10 | 41.17178 | 0.96754 | 33010 ft | 411 kts | 257° |
| 2026-05-08 09:11 | 41.16228 | 0.89244 | 33022 ft | 412 kts | 257° |
| 2026-05-08 09:11 | 41.15285 | 0.81728 | 33014 ft | 413 kts | 257° |
| 2026-05-08 09:12 | 41.14341 | 0.74223 | 33018 ft | 414 kts | 257° |
| 2026-05-08 09:12 | 41.13386 | 0.66667 | 33014 ft | 415 kts | 257° |
| 2026-05-08 09:13 | 41.12435 | 0.59150 | 33014 ft | 416 kts | 257° |
| 2026-05-08 09:13 | 41.11471 | 0.51569 | 33013 ft | 417 kts | 256° |
| 2026-05-08 09:14 | 41.10498 | 0.43961 | 33016 ft | 418 kts | 256° |
| 2026-05-08 09:14 | 41.09528 | 0.36327 | 33016 ft | 419 kts | 257° |
| 2026-05-08 09:15 | 41.08572 | 0.28740 | 33018 ft | 420 kts | 257° |
| 2026-05-08 09:15 | 41.07578 | 0.21107 | 33016 ft | 420 kts | 256° |
| 2026-05-08 09:16 | 41.06567 | 0.13456 | 33015 ft | 421 kts | 256° |
| 2026-05-08 09:16 | 41.05555 | 0.05850 | 33010 ft | 421 kts | 256° |
| 2026-05-08 09:17 | 41.04534 | -0.01806 | 33010 ft | 422 kts | 256° |
| 2026-05-08 09:17 | 41.03513 | -0.09429 | 33005 ft | 422 kts | 256° |
| 2026-05-08 09:18 | 41.02481 | -0.17105 | 32992 ft | 422 kts | 256° |
| 2026-05-08 09:18 | 41.01439 | -0.24784 | 32989 ft | 422 kts | 255° |
| 2026-05-08 09:19 | 40.99948 | -0.32208 | 32982 ft | 418 kts | 246° |